Latest Weather Observations for Hillarys Point Boat Harbour

IDW60801

Issued at 11:35 pm WST Tuesday 22 July 2014 (issued every 30 minutes, with the page automatically refreshed every 10 minutes)

About weather observations | Map of weather stations | Latest weather observations for WA | Other Formats
Station Details ID: 009265 Name: HILLARYS BOAT HARBOUR NTC AWS Lat: -31.83 Lon: 115.74 Height: 0.0 m
Data from the previous 72 hours. | See also: Recent months for locations in Western Australia
Date/Time
WST
Temp
°C
App
Temp
°C
Dew
Point
Rel
Hum
%
Delta-T
°C
Wind Press
QNH
hPa
Press
MSL
hPa
Rain
since 9 am
mm
Dir
 
Spd
km/h
Gust
km/h
Spd
kts
Gust
kts
22/11:30pm 12.7 - - - - SSW 7 19 4 10 1021.2 - -
22/11:00pm 13.0 - - - - SSW 9 24 5 13 1021.2 1021.2 -
22/10:30pm 14.5 - - - - SSW 11 30 6 16 1021.0 - -
22/10:00pm 13.4 - - - - S 6 20 3 11 1021.1 1021.1 -
22/09:30pm 12.9 - - - - SSW 15 28 8 15 1021.1 - -
22/09:00pm 12.7 - - - - S 7 19 4 10 1021.0 1021.0 -
22/08:30pm 13.4 - - - - SSW 15 28 8 15 1020.8 - -
22/08:00pm 13.9 - - - - SSW 11 26 6 14 1020.5 1020.5 -
22/07:30pm 14.6 - - - - SW 20 35 11 19 1020.2 - -
22/07:00pm 14.7 - - - - SSW 11 26 6 14 1019.7 1019.7 -
22/06:30pm 14.8 - - - - SSW 17 32 9 17 1019.3 - -
22/06:00pm 14.3 - - - - SSW 13 30 7 16 1019.1 1019.1 -
22/05:30pm 14.5 - - - - SW 20 37 11 20 1018.9 - -
22/05:00pm 15.2 - - - - SW 17 33 9 18 1018.3 1018.3 -
22/04:30pm 14.5 - - - - WSW 28 39 15 21 1018.2 - -
22/04:00pm 14.9 - - - - SW 30 41 16 22 1017.9 1017.9 -
22/03:30pm 16.0 - - - - WSW 24 32 13 17 1017.5 - -
22/03:00pm 15.6 - - - - WSW 28 39 15 21 1017.3 1017.3 -
22/02:30pm 15.7 - - - - SW 22 30 12 16 1017.3 - -
22/02:00pm 13.4 - - - - S 4 7 2 4 1017.2 1017.2 -
22/01:30pm 13.4 - - - - S 6 17 3 9 1017.3 - -
22/01:00pm 12.8 - - - - S 2 6 1 3 1017.2 1017.2 -
22/12:30pm 12.4 - - - - W 6 7 3 4 1017.3 - -
22/12:00pm 13.6 - - - - NW 2 6 1 3 1017.5 1017.5 -
22/11:30am 12.5 - - - - WSW 6 9 3 5 1017.9 - -
22/11:00am 11.4 - - - - NW 4 9 2 5 1018.2 1018.2 -
22/10:30am 11.5 - - - - NNE 4 9 2 5 1018.1 - -
22/10:00am 11.4 - - - - CALM 0 4 0 2 1017.9 1017.9 -
22/09:30am 11.1 - - - - E 2 7 1 4 1017.8 - -
22/09:00am 11.0 - - - - NNE 4 7 2 4 1017.1 1017.1 -
22/08:30am 10.8 - - - - E 7 11 4 6 1016.7 - -
22/08:00am 10.3 - - - - E 2 9 1 5 1016.6 1016.6 -
22/07:30am 10.2 - - - - E 6 11 3 6 1015.6 - -
22/07:00am 10.5 - - - - E 4 9 2 5 1015.6 1015.6 -
22/06:30am 10.7 - - - - E 4 9 2 5 1014.9 - -
22/06:00am 12.1 - - - - S 7 17 4 9 1014.4 1014.4 -
22/05:30am 11.2 - - - - E 6 13 3 7 1013.8 - -
22/05:00am 12.7 - - - - S 11 24 6 13 1013.6 1013.6 -
22/04:30am 14.1 - - - - SW 22 44 12 24 1013.2 - -
22/04:00am 13.7 - - - - SW 37 52 20 28 1013.0 1013.0 -
22/03:40am 13.8 - - - - WSW 28 52 15 28 1012.3 - -
22/03:30am 13.2 - - - - SE 7 26 4 14 1012.3 - -
22/03:00am 15.2 - - - - SW 20 33 11 18 1012.3 1012.3 -
22/02:30am 14.9 - - - - SW 22 35 12 19 1012.2 - -
22/02:00am 14.1 - - - - SSW 7 19 4 10 1011.9 1011.9 -
22/01:30am 13.7 - - - - WSW 11 22 6 12 1012.0 - -
22/01:00am 12.9 - - - - WSW 22 39 12 21 1012.5 1012.5 -
22/12:43am 12.6 - - - - WSW 32 52 17 28 1012.7 - -
22/12:37am 12.6 - - - - W 35 52 19 28 1012.3 - -
22/12:30am 14.8 - - - - W 13 22 7 12 1012.1 - -
22/12:00am 14.9 - - - - W 11 19 6 10 1012.0 1012.0 -
 
Date/Time
WST
Temp
°C
App
Temp
°C
Dew
Point
Rel
Hum
%
Delta-T
°C
Wind Press
QNH
hPa
Press
MSL
hPa
Rain
since 9 am
mm
Dir
 
Spd
km/h
Gust
km/h
Spd
kts
Gust
kts
21/11:30pm 15.3 - - - - WSW 19 28 10 15 1012.4 - -
21/11:00pm 15.1 - - - - SW 17 28 9 15 1012.8 1012.8 -
21/10:30pm 14.3 - - - - WSW 26 43 14 23 1012.6 - -
21/10:00pm 13.4 - - - - NW 6 11 3 6 1013.1 1013.1 -
21/09:30pm 13.3 - - - - NE 6 9 3 5 1013.1 - -
21/09:00pm 14.2 - - - - N 7 11 4 6 1013.3 1013.3 -
21/08:30pm 14.9 - - - - W 13 22 7 12 1013.1 - -
21/08:00pm 15.4 - - - - WSW 28 35 15 19 1013.2 1013.2 -
21/07:30pm 14.9 - - - - WSW 32 44 17 24 1012.8 - -
21/07:00pm 14.2 - - - - WSW 17 30 9 16 1013.2 1013.2 -
21/06:30pm 14.7 - - - - N 13 22 7 12 1012.4 - -
21/06:00pm 14.7 - - - - N 11 22 6 12 1012.5 1012.5 -
21/05:30pm 14.9 - - - - NW 9 13 5 7 1012.6 - -
21/05:00pm 16.3 - - - - NNW 11 28 6 15 1012.5 1012.5 -
21/04:30pm 17.4 - - - - NNW 15 24 8 13 1012.6 - -
21/04:00pm 17.2 - - - - N 11 24 6 13 1012.9 1012.9 -
21/03:30pm 16.4 - - - - N 11 19 6 10 1012.9 - -
21/03:00pm 15.1 - - - - N 15 26 8 14 1013.1 1013.1 -
21/02:30pm 14.9 - - - - N 13 22 7 12 1013.5 - -
21/02:00pm 14.6 - - - - N 17 26 9 14 1013.5 1013.5 -
21/01:30pm 14.4 - - - - N 17 28 9 15 1014.4 - -
21/01:00pm 15.2 - - - - N 11 22 6 12 1014.6 1014.6 -
21/12:30pm 14.3 - - - - N 17 30 9 16 1015.2 - -
21/12:00pm 15.0 - - - - N 17 24 9 13 1015.4 1015.4 -
21/11:30am 15.2 - - - - N 15 30 8 16 1015.9 - -
21/11:00am 13.7 - - - - N 15 24 8 13 1016.5 1016.5 -
21/10:30am 15.2 - - - - N 7 13 4 7 1016.6 - -
21/10:00am 14.1 - - - - NNW 7 15 4 8 1016.9 1016.9 -
21/09:30am 13.8 - - - - N 6 7 3 4 1017.1 - -
21/09:00am 13.9 - - - - NNE 9 17 5 9 1016.6 1016.6 -
21/08:30am 13.5 - - - - NE 7 13 4 7 1016.5 - -
21/08:00am 13.8 - - - - NE 6 9 3 5 1016.4 1016.4 -
21/07:30am 15.6 - - - - NNW 6 9 3 5 1016.4 - -
21/07:00am 15.6 - - - - WNW 6 9 3 5 1016.5 1016.5 -
21/06:30am 15.6 - - - - W 13 20 7 11 1016.5 - -
21/06:00am 15.6 - - - - W 13 22 7 12 1016.3 1016.3 -
21/05:30am 15.7 - - - - W 15 22 8 12 1016.3 - -
21/05:00am 15.6 - - - - W 13 22 7 12 1016.1 1016.1 -
21/04:30am 15.8 - - - - W 13 20 7 11 1016.1 - -
21/04:00am 15.8 - - - - W 15 26 8 14 1015.9 1015.9 -
21/03:30am 15.9 - - - - W 15 24 8 13 1015.8 - -
21/03:00am 16.0 - - - - W 15 28 8 15 1015.7 1015.7 -
21/02:30am 16.1 - - - - WSW 22 28 12 15 1015.6 - -
21/02:00am 16.1 - - - - WSW 24 32 13 17 1015.6 1015.6 -
21/01:30am 15.9 - - - - SW 19 30 10 16 1015.8 - -
21/01:00am 15.7 - - - - SW 13 22 7 12 1015.8 1015.8 -
21/12:30am 13.5 - - - - NNE 4 9 2 5 1016.1 - -
21/12:00am 13.0 - - - - ENE 6 7 3 4 1016.3 1016.3 -
 
Date/Time
WST
Temp
°C
App
Temp
°C
Dew
Point
Rel
Hum
%
Delta-T
°C
Wind Press
QNH
hPa
Press
MSL
hPa
Rain
since 9 am
mm
Dir
 
Spd
km/h
Gust
km/h
Spd
kts
Gust
kts
20/11:30pm 13.2 - - - - ENE 4 7 2 4 1016.6 - -
20/11:00pm 13.3 - - - - NE 6 7 3 4 1016.6 1016.6 -
20/10:30pm 13.2 - - - - NE 4 7 2 4 1016.7 - -
20/10:00pm 13.3 - - - - NE 4 6 2 3 1016.8 1016.8 -
20/09:30pm 13.4 - - - - NE 4 6 2 3 1016.7 - -
20/09:00pm 13.9 - - - - ENE 2 4 1 2 1016.5 1016.5 -
20/08:30pm 13.5 - - - - E 4 6 2 3 1016.4 - -
20/08:00pm 13.9 - - - - E 2 4 1 2 1016.2 1016.2 -
20/07:30pm 14.2 - - - - E 2 4 1 2 1016.1 - -
20/07:00pm 15.5 - - - - S 4 9 2 5 1015.8 1015.8 -
20/06:30pm 15.7 - - - - SSW 7 13 4 7 1015.5 - -
20/06:00pm 15.6 - - - - SW 6 11 3 6 1015.2 1015.2 -
20/05:30pm 15.7 - - - - W 6 9 3 5 1014.8 - -
20/05:00pm 15.6 - - - - WSW 6 9 3 5 1014.6 1014.6 -
20/04:30pm 15.6 - - - - SW 6 9 3 5 1014.3 - -
20/04:00pm 15.9 - - - - SW 6 13 3 7 1014.1 1014.1 -
20/03:30pm 15.6 - - - - SW 6 9 3 5 1013.8 - -
20/03:00pm 15.4 - - - - SSW 7 13 4 7 1013.7 1013.7 -
20/02:30pm 15.5 - - - - SW 6 13 3 7 1013.4 - -
20/02:00pm 15.4 - - - - SW 7 11 4 6 1013.2 1013.2 -
20/01:30pm 14.7 - - - - SW 9 15 5 8 1013.2 - -
20/01:00pm 14.5 - - - - SW 9 13 5 7 1013.1 1013.1 -
20/12:30pm 14.6 - - - - SSW 7 15 4 8 1013.0 - -
20/12:00pm 14.5 - - - - SW 6 11 3 6 1013.1 1013.1 -
20/11:30am 14.4 - - - - SSE 4 9 2 5 1013.1 - -
20/11:00am 14.0 - - - - ENE 6 9 3 5 1013.1 1013.1 -
20/10:30am 13.4 - - - - ENE 7 13 4 7 1013.1 - -
20/10:00am 12.6 - - - - ENE 9 15 5 8 1013.0 1013.0 -
20/09:30am 12.0 - - - - ENE 7 11 4 6 1012.9 - -
20/09:00am 11.5 - - - - E 6 13 3 7 1012.6 1012.6 -
20/08:30am 11.2 - - - - NE 6 11 3 6 1012.1 - -
20/08:00am 10.9 - - - - NE 6 11 3 6 1011.7 1011.7 -
20/07:30am 10.8 - - - - NE 6 9 3 5 1011.3 - -
20/07:00am 10.7 - - - - NNE 6 9 3 5 1011.0 1011.0 -
20/06:30am 10.7 - - - - ENE 7 13 4 7 1010.6 - -
20/06:00am 10.9 - - - - E 4 9 2 5 1010.8 1010.8 -
20/05:30am 11.4 - - - - SSE 2 4 1 2 1011.1 - -
20/05:00am 10.8 - - - - ENE 2 6 1 3 1010.9 1010.9 -
20/04:30am 10.6 - - - - E 2 4 1 2 1010.9 - -
20/04:00am 10.8 - - - - ENE 6 9 3 5 1010.3 1010.3 -
20/03:30am 11.1 - - - - ENE 9 15 5 8 1010.2 - -
20/03:00am 11.0 - - - - ENE 9 15 5 8 1010.1 1010.1 -
20/02:30am 11.3 - - - - ENE 9 15 5 8 1010.3 - -
20/02:00am 11.6 - - - - NE 9 17 5 9 1010.2 1010.2 -
20/01:30am 11.7 - - - - NE 9 24 5 13 1010.3 - -
20/01:00am 12.0 - - - - NNE 13 22 7 12 1010.6 1010.6 -
20/12:30am 12.1 - - - - NNE 13 24 7 13 1010.9 - -
20/12:00am 12.3 - - - - NNE 11 19 6 10 1010.9 1010.9 -

Other Formats:

Comma delimited format used in spreadsheet applications
http://www.bom.gov.au/fwo/IDW60801/IDW60801.95605.axf

JavaScript Object Notation format (JSON) in row-major order
http://www.bom.gov.au/fwo/IDW60801/IDW60801.95605.json